Time;durP1;ratioP1;P1;durP2;ratioP2;P2;SDS_P1;SDS_P2;PMS_P1;PMS_P2;Temp;Humidity;BMP_temperature;BMP_pressure;BME280_temperature;BME280_humidity;BME280_pressure;Samples;Min_cycle;Max_cycle;Signal;HPM_P1;HPM_P2
2023/07/07 04:27:12;;;;;;;3.55;3.35;;;;;;;;;;5081780;23;20235;-68
2023/07/07 04:29:41;;;;;;;3.28;3.08;;;;;;;;;;4975424;28;20705;-68
2023/07/07 04:32:08;;;;;;;3.92;3.63;;;;;;;;;;4974987;28;20214;-69
2023/07/07 04:34:35;;;;;;;3.85;3.50;;;;;;;;;;4974738;28;20262;-70
2023/07/07 04:37:02;;;;;;;3.97;3.67;;;;;;;;;;4974787;28;20274;-69
2023/07/07 04:39:29;;;;;;;4.50;3.72;;;;;;;;;;4975077;28;20689;-70
2023/07/07 04:41:56;;;;;;;3.88;3.47;;;;;;;;;;4974994;28;20203;-70
2023/07/07 04:44:25;;;;;;;4.15;3.85;;;;;;;;;;4975490;28;20207;-70
2023/07/07 04:46:52;;;;;;;4.07;3.78;;;;;;;;;;4975485;28;20219;-72
2023/07/07 04:49:21;;;;;;;4.38;3.97;;;;;;;;;;4975343;28;20281;-71
2023/07/07 04:51:48;;;;;;;4.28;3.88;;;;;;;;;;4974884;28;20210;-70
2023/07/07 04:54:15;;;;;;;4.78;4.38;;;;;;;;;;4974595;28;20226;-70
2023/07/07 04:56:44;;;;;;;3.78;3.47;;;;;;;;;;4974899;28;20223;-70
2023/07/07 04:59:11;;;;;;;4.03;3.72;;;;;;;;;;4974811;28;20207;-71
2023/07/07 05:01:40;;;;;;;4.50;4.10;;;;;;;;;;4974653;28;20210;-71
2023/07/07 05:04:08;;;;;;;3.85;3.55;;;;;;;;;;4975792;28;20270;-72
2023/07/07 05:06:37;;;;;;;4.32;3.72;;;;;;;;;;4975382;28;20290;-72
2023/07/07 05:09:05;;;;;;;4.13;3.78;;;;;;;;;;4975647;28;20203;-72
2023/07/07 10:50:38;;;;;;;2.80;2.60;;;;;;;;;;5550646;23;20226;-70
2023/07/07 10:53:14;;;;;;;5.00;2.92;;;;;;;;;;4991381;28;20213;-71
2023/07/07 10:55:53;;;;;;;3.78;3.47;;;;;;;;;;4976446;28;20187;-71
2023/07/07 10:58:28;;;;;;;3.13;2.88;;;;;;;;;;4976404;28;20279;-70
2023/07/07 11:01:03;;;;;;;3.60;3.00;;;;;;;;;;4975685;28;20588;-72
2023/07/07 11:03:40;;;;;;;3.10;2.90;;;;;;;;;;4976071;28;20187;-71
2023/07/07 11:06:20;;;;;;;3.10;2.90;;;;;;;;;;4976625;28;20601;-72
2023/07/07 11:08:54;;;;;;;3.42;3.13;;;;;;;;;;4976178;28;20630;-69
2023/07/07 11:11:28;;;;;;;2.83;2.65;;;;;;;;;;4975930;28;20234;-69
2023/07/07 11:14:08;;;;;;;3.10;2.90;;;;;;;;;;4976751;28;20187;-69
2023/07/07 11:16:42;;;;;;;2.50;2.40;;;;;;;;;;4975867;28;20262;-69
2023/07/07 11:19:19;;;;;;;2.78;2.55;;;;;;;;;;4975905;28;20187;-69
2023/07/07 11:21:52;;;;;;;2.80;2.60;;;;;;;;;;4975230;28;20281;-69
2023/07/07 11:24:25;;;;;;;2.78;2.58;;;;;;;;;;4975605;28;20191;-69
2023/07/07 11:27:08;;;;;;;2.88;2.72;;;;;;;;;;4975607;28;20187;-69
2023/07/07 11:29:42;;;;;;;2.80;2.60;;;;;;;;;;4975366;28;20190;-69
2023/07/07 11:32:20;;;;;;;5.80;2.55;;;;;;;;;;4975578;28;20267;-69
2023/07/07 11:34:55;;;;;;;3.10;2.92;;;;;;;;;;4975277;28;20666;-69
2023/07/07 11:37:32;;;;;;;2.88;2.63;;;;;;;;;;4975554;28;20292;-69
2023/07/07 11:40:09;;;;;;;3.13;2.92;;;;;;;;;;4975307;28;20219;-69
2023/07/07 11:42:47;;;;;;;3.05;2.83;;;;;;;;;;4975336;28;20197;-69
2023/07/07 11:45:21;;;;;;;3.17;2.97;;;;;;;;;;4975339;28;20357;-69
2023/07/07 11:47:57;;;;;;;2.80;2.38;;;;;;;;;;4975363;28;20211;-69
2023/07/07 11:50:38;;;;;;;2.65;2.45;;;;;;;;;;4975558;28;20256;-69
2023/07/07 11:53:23;;;;;;;2.63;2.42;;;;;;;;;;4975485;28;20219;-69
2023/07/07 11:55:57;;;;;;;2.90;2.60;;;;;;;;;;4975156;28;20246;-69
2023/07/07 11:58:32;;;;;;;2.20;2.10;;;;;;;;;;4975272;28;20188;-69
2023/07/07 12:01:13;;;;;;;2.75;2.55;;;;;;;;;;4974886;28;20229;-69
2023/07/07 12:03:46;;;;;;;2.55;2.35;;;;;;;;;;4975047;28;20198;-69
2023/07/07 12:06:19;;;;;;;2.65;2.45;;;;;;;;;;4975004;28;20183;-69
2023/07/07 12:08:52;;;;;;;2.67;2.53;;;;;;;;;;4974867;28;20187;-69
2023/07/07 12:11:24;;;;;;;2.45;2.25;;;;;;;;;;4974818;28;20226;-69
2023/07/07 12:14:01;;;;;;;2.90;2.67;;;;;;;;;;4974734;28;20214;-69
2023/07/07 12:16:32;;;;;;;2.80;2.60;;;;;;;;;;4974502;28;20183;-69
2023/07/07 12:19:14;;;;;;;3.28;2.97;;;;;;;;;;4974777;28;20190;-69
2023/07/07 12:21:43;;;;;;;6.40;3.60;;;;;;;;;;4974664;28;20226;-69
2023/07/07 12:24:18;;;;;;;8.35;3.67;;;;;;;;;;4974835;28;20206;-68
2023/07/07 12:26:52;;;;;;;4.43;3.28;;;;;;;;;;4974792;28;20186;-69
2023/07/07 12:29:22;;;;;;;2.95;2.75;;;;;;;;;;4974704;28;20279;-68
2023/07/07 12:31:52;;;;;;;2.85;2.65;;;;;;;;;;4974670;28;20210;-68
2023/07/07 12:34:22;;;;;;;2.92;2.70;;;;;;;;;;4976623;28;20210;-68
2023/07/07 12:36:50;;;;;;;2.63;2.42;;;;;;;;;;4978422;28;20184;-68
2023/07/07 12:39:23;;;;;;;3.08;2.45;;;;;;;;;;4978343;28;20202;-68
2023/07/07 12:41:53;;;;;;;3.90;3.17;;;;;;;;;;4978759;28;20191;-69
2023/07/07 12:44:21;;;;;;;2.42;2.33;;;;;;;;;;4978702;28;20206;-69
2023/07/07 12:46:49;;;;;;;2.72;2.53;;;;;;;;;;4978657;28;20207;-69
2023/07/07 12:49:21;;;;;;;3.22;3.03;;;;;;;;;;4978568;28;20203;-69
2023/07/07 12:51:55;;;;;;;2.55;2.40;;;;;;;;;;4978653;28;20210;-69
2023/07/07 12:54:36;;;;;;;2.20;2.00;;;;;;;;;;4979015;28;20261;-69
2023/07/07 12:57:06;;;;;;;2.53;2.28;;;;;;;;;;4978388;28;20195;-68
2023/07/07 12:59:36;;;;;;;2.63;2.42;;;;;;;;;;4978242;28;20210;-68
2023/07/07 13:02:12;;;;;;;2.70;2.50;;;;;;;;;;4978327;28;20497;-68
2023/07/07 13:04:43;;;;;;;3.85;3.00;;;;;;;;;;4978014;28;20266;-68
2023/07/07 13:07:21;;;;;;;3.83;3.05;;;;;;;;;;4977990;28;20658;-69
2023/07/07 13:09:52;;;;;;;2.53;2.35;;;;;;;;;;4978131;28;20233;-69
2023/07/07 13:12:39;;;;;;;2.88;2.67;;;;;;;;;;4978737;28;20567;-69
2023/07/07 13:15:08;;;;;;;2.53;2.42;;;;;;;;;;4977726;28;20601;-69
2023/07/07 13:17:36;;;;;;;2.60;2.40;;;;;;;;;;4978051;28;20207;-69
2023/07/07 13:20:08;;;;;;;2.50;2.30;;;;;;;;;;4978526;28;20231;-69
2023/07/07 13:22:38;;;;;;;2.72;2.53;;;;;;;;;;4977885;28;20183;-69
2023/07/07 13:25:09;;;;;;;2.22;2.13;;;;;;;;;;4977911;28;20229;-69
2023/07/07 13:27:39;;;;;;;2.78;2.58;;;;;;;;;;4978284;28;20210;-69
2023/07/07 13:30:24;;;;;;;3.72;2.53;;;;;;;;;;4977747;28;20226;-69
2023/07/07 13:32:54;;;;;;;2.88;2.28;;;;;;;;;;4977717;28;20211;-69
2023/07/07 13:35:23;;;;;;;2.78;2.58;;;;;;;;;;4977775;28;20262;-69
2023/07/07 13:37:51;;;;;;;2.70;2.53;;;;;;;;;;4977327;28;20705;-69
2023/07/07 13:40:21;;;;;;;2.25;2.13;;;;;;;;;;4977843;28;20277;-69
2023/07/07 13:42:52;;;;;;;2.70;2.50;;;;;;;;;;4978351;28;20202;-69
2023/07/07 13:45:23;;;;;;;4.03;2.35;;;;;;;;;;4977371;28;20207;-69
2023/07/07 13:47:52;;;;;;;2.97;2.78;;;;;;;;;;4977465;28;20187;-69
2023/07/07 13:50:23;;;;;;;3.45;2.40;;;;;;;;;;4977160;28;20222;-68
2023/07/07 13:52:55;;;;;;;3.30;2.72;;;;;;;;;;4976930;28;20219;-68
2023/07/07 13:55:25;;;;;;;2.65;2.45;;;;;;;;;;4978032;28;20644;-68
2023/07/07 13:57:53;;;;;;;3.35;3.05;;;;;;;;;;4976882;28;20573;-68
2023/07/07 14:00:27;;;;;;;3.60;3.15;;;;;;;;;;4977135;28;20238;-68
2023/07/07 14:02:55;;;;;;;2.53;2.33;;;;;;;;;;4977245;28;20270;-68
2023/07/07 14:05:25;;;;;;;2.50;2.40;;;;;;;;;;4977657;28;20228;-69
2023/07/07 14:07:54;;;;;;;1.75;1.75;;;;;;;;;;4976768;28;20191;-69
2023/07/07 14:10:24;;;;;;;2.28;2.17;;;;;;;;;;4976659;28;20768;-68
2023/07/07 14:12:55;;;;;;;4.18;2.13;;;;;;;;;;4977463;28;20274;-68
2023/07/07 14:15:27;;;;;;;2.05;1.95;;;;;;;;;;4977096;28;20187;-68
2023/07/07 14:17:55;;;;;;;2.92;2.33;;;;;;;;;;4977742;28;20192;-68
2023/07/07 14:20:26;;;;;;;2.63;2.42;;;;;;;;;;4977354;28;20219;-69
2023/07/07 14:22:56;;;;;;;2.00;1.90;;;;;;;;;;4977634;28;20558;-69
2023/07/07 14:25:24;;;;;;;2.47;2.20;;;;;;;;;;4977020;28;20241;-69
2023/07/07 14:27:56;;;;;;;2.60;2.13;;;;;;;;;;4977214;28;20205;-69
2023/07/07 14:30:28;;;;;;;2.42;2.33;;;;;;;;;;4976961;28;20231;-70
2023/07/07 14:32:59;;;;;;;2.47;1.90;;;;;;;;;;4977271;28;20207;-70
2023/07/07 14:35:32;;;;;;;3.00;2.80;;;;;;;;;;4978449;28;20187;-69
2023/07/07 14:38:04;;;;;;;2.40;2.20;;;;;;;;;;4976744;28;20191;-70
2023/07/07 14:40:35;;;;;;;3.55;2.92;;;;;;;;;;4976522;28;20250;-70
2023/07/07 14:43:05;;;;;;;3.17;2.97;;;;;;;;;;4976563;28;20190;-70
2023/07/07 14:45:38;;;;;;;2.72;2.53;;;;;;;;;;4976418;28;20213;-69
2023/07/07 14:48:06;;;;;;;3.17;2.60;;;;;;;;;;4977387;28;20238;-68
2023/07/07 14:50:35;;;;;;;2.55;2.45;;;;;;;;;;4976685;28;20222;-70
2023/07/07 14:53:03;;;;;;;2.50;2.30;;;;;;;;;;4975957;28;20218;-70
2023/07/07 14:55:32;;;;;;;2.38;2.25;;;;;;;;;;4975914;28;20738;-70
2023/07/07 14:58:02;;;;;;;2.15;1.95;;;;;;;;;;4975609;28;20210;-70
2023/07/07 15:00:34;;;;;;;2.72;1.83;;;;;;;;;;4976320;28;20278;-70
2023/07/07 15:03:04;;;;;;;2.10;2.00;;;;;;;;;;4976043;28;20631;-70
2023/07/07 15:05:33;;;;;;;3.80;2.70;;;;;;;;;;4976186;28;20571;-71
2023/07/07 15:08:09;;;;;;;4.30;2.58;;;;;;;;;;4976188;28;20680;-71
2023/07/07 15:10:40;;;;;;;3.38;2.90;;;;;;;;;;4976011;28;20222;-71
2023/07/07 15:13:08;;;;;;;3.30;3.03;;;;;;;;;;4975977;28;20242;-71
2023/07/07 15:15:38;;;;;;;2.60;2.40;;;;;;;;;;4975681;28;20547;-70
2023/07/07 15:18:06;;;;;;;2.40;2.22;;;;;;;;;;4975569;28;20693;-70
2023/07/07 15:20:34;;;;;;;2.45;2.28;;;;;;;;;;4975775;28;20226;-70
2023/07/07 15:23:02;;;;;;;2.20;2.10;;;;;;;;;;4975625;28;20194;-70
2023/07/07 15:25:30;;;;;;;2.30;2.20;;;;;;;;;;4975916;28;20194;-70
2023/07/07 15:27:58;;;;;;;2.70;2.50;;;;;;;;;;4975872;28;20210;-70
2023/07/07 15:30:27;;;;;;;2.45;2.33;;;;;;;;;;4975282;28;20226;-70
2023/07/07 15:32:58;;;;;;;3.40;2.50;;;;;;;;;;4975561;28;20209;-70
2023/07/07 15:35:26;;;;;;;2.65;2.45;;;;;;;;;;4975510;28;20222;-70
2023/07/07 15:37:54;;;;;;;3.13;2.35;;;;;;;;;;4975174;28;20214;-70
2023/07/07 15:40:23;;;;;;;3.17;2.75;;;;;;;;;;4975776;28;20599;-70
2023/07/07 15:42:54;;;;;;;2.65;2.42;;;;;;;;;;4975436;28;20199;-70
2023/07/07 15:45:22;;;;;;;2.60;2.40;;;;;;;;;;4975463;28;20191;-70
2023/07/07 15:47:51;;;;;;;2.33;2.13;;;;;;;;;;4976072;28;20202;-70
2023/07/07 15:50:21;;;;;;;2.28;2.17;;;;;;;;;;4975636;28;20223;-70
2023/07/07 15:52:50;;;;;;;2.80;2.60;;;;;;;;;;4975083;28;20261;-70
2023/07/07 15:55:18;;;;;;;3.83;2.15;;;;;;;;;;4976004;28;20223;-70
2023/07/07 15:57:46;;;;;;;3.00;2.10;;;;;;;;;;4975715;28;20202;-70
2023/07/07 16:00:25;;;;;;;2.45;2.28;;;;;;;;;;4975495;28;20230;-70
2023/07/07 16:02:53;;;;;;;2.75;2.50;;;;;;;;;;4975078;28;20187;-70
2023/07/07 16:05:23;;;;;;;4.95;3.15;;;;;;;;;;4974934;28;20199;-70
2023/07/07 16:07:51;;;;;;;2.90;2.50;;;;;;;;;;4974681;28;20737;-70
2023/07/07 16:10:19;;;;;;;2.22;2.13;;;;;;;;;;4974895;28;20219;-71
2023/07/07 16:12:47;;;;;;;3.70;2.53;;;;;;;;;;4975522;28;20206;-71
2023/07/07 16:15:16;;;;;;;3.55;2.63;;;;;;;;;;4975104;28;20222;-71
2023/07/07 16:17:45;;;;;;;2.67;2.47;;;;;;;;;;4975094;28;20543;-71
2023/07/07 16:20:19;;;;;;;3.15;2.88;;;;;;;;;;4974985;28;20223;-71
2023/07/07 16:22:51;;;;;;;3.20;2.78;;;;;;;;;;4974806;28;20221;-71
2023/07/07 16:25:19;;;;;;;3.05;2.70;;;;;;;;;;4975264;28;20183;-71
2023/07/07 16:27:48;;;;;;;2.72;2.53;;;;;;;;;;4975944;28;20210;-71
2023/07/07 16:30:19;;;;;;;4.13;2.45;;;;;;;;;;4975184;28;20281;-71
2023/07/07 16:32:47;;;;;;;3.15;2.42;;;;;;;;;;4975549;28;20230;-71
2023/07/07 16:35:16;;;;;;;2.63;2.42;;;;;;;;;;4989539;28;20226;-71
2023/07/07 16:37:45;;;;;;;2.53;2.40;;;;;;;;;;4993884;28;20257;-71
2023/07/07 16:40:19;;;;;;;2.50;2.38;;;;;;;;;;4995559;28;20222;-71
2023/07/07 16:42:47;;;;;;;2.10;2.00;;;;;;;;;;4994351;28;20190;-69
2023/07/07 16:45:16;;;;;;;2.50;2.40;;;;;;;;;;4975564;28;20194;-70
2023/07/07 16:47:44;;;;;;;2.58;2.33;;;;;;;;;;4975547;28;20214;-70
2023/07/07 16:50:18;;;;;;;3.35;1.88;;;;;;;;;;4975157;28;20219;-70
2023/07/07 16:52:46;;;;;;;2.10;2.00;;;;;;;;;;4974506;28;20236;-69
2023/07/07 16:55:16;;;;;;;1.73;1.63;;;;;;;;;;4974119;28;20614;-68
2023/07/07 16:57:45;;;;;;;2.15;2.05;;;;;;;;;;4974497;28;20245;-68
2023/07/07 17:00:18;;;;;;;2.30;2.20;;;;;;;;;;4974343;28;20230;-69
2023/07/07 17:02:48;;;;;;;3.25;2.50;;;;;;;;;;4974572;28;20635;-70
2023/07/07 17:05:19;;;;;;;2.10;2.00;;;;;;;;;;4974552;28;20187;-70
2023/07/07 17:07:49;;;;;;;4.15;2.20;;;;;;;;;;4997458;23;20188;-69
2023/07/07 17:10:22;;;;;;;2.17;2.08;;;;;;;;;;4974462;28;20195;-71
2023/07/07 17:12:52;;;;;;;2.22;2.13;;;;;;;;;;4974253;28;20187;-71
2023/07/07 17:15:22;;;;;;;2.03;1.92;;;;;;;;;;4974273;28;20608;-71
2023/07/07 17:17:51;;;;;;;1.70;1.70;;;;;;;;;;4974284;28;20206;-71
2023/07/07 17:20:23;;;;;;;1.70;1.60;;;;;;;;;;4976152;28;20202;-71
2023/07/07 17:22:53;;;;;;;2.10;2.00;;;;;;;;;;4978274;28;20183;-71
2023/07/07 17:25:25;;;;;;;2.28;2.17;;;;;;;;;;4977841;28;20666;-71
2023/07/07 17:27:55;;;;;;;2.15;2.00;;;;;;;;;;4977810;28;20550;-72
2023/07/07 17:30:26;;;;;;;2.70;2.50;;;;;;;;;;4978120;28;20242;-71
2023/07/07 17:32:55;;;;;;;2.15;2.00;;;;;;;;;;4978085;28;20250;-71
2023/07/07 17:35:26;;;;;;;2.05;1.95;;;;;;;;;;4977825;28;20206;-71
2023/07/07 17:37:54;;;;;;;1.65;1.55;;;;;;;;;;4977481;28;20227;-71
2023/07/07 17:40:29;;;;;;;2.60;2.40;;;;;;;;;;4978513;28;20213;-70
2023/07/07 17:42:57;;;;;;;2.30;2.10;;;;;;;;;;4977899;28;20187;-70
2023/07/07 17:45:26;;;;;;;1.98;1.88;;;;;;;;;;4978090;28;20187;-71
2023/07/07 17:47:54;;;;;;;2.03;1.95;;;;;;;;;;4978408;28;20230;-70
2023/07/07 17:50:26;;;;;;;2.40;2.20;;;;;;;;;;4978390;28;20205;-70
2023/07/07 17:52:56;;;;;;;2.53;2.13;;;;;;;;;;4977691;28;20198;-71
2023/07/07 17:55:27;;;;;;;2.25;2.13;;;;;;;;;;4977393;28;20214;-71
2023/07/07 17:57:57;;;;;;;2.40;2.10;;;;;;;;;;4977424;28;20226;-71
2023/07/07 18:00:28;;;;;;;2.78;2.40;;;;;;;;;;4977783;28;20246;-71
2023/07/07 18:02:56;;;;;;;2.22;2.13;;;;;;;;;;4977843;28;20183;-71
2023/07/07 18:05:24;;;;;;;2.08;1.98;;;;;;;;;;4978380;28;20199;-71
2023/07/07 18:07:52;;;;;;;1.95;1.83;;;;;;;;;;4977379;28;20565;-71
2023/07/07 18:10:22;;;;;;;1.60;1.50;;;;;;;;;;4977540;28;20198;-71
2023/07/07 18:12:52;;;;;;;2.40;2.25;;;;;;;;;;4977317;28;20217;-72
2023/07/07 18:15:22;;;;;;;2.58;2.28;;;;;;;;;;4977651;28;20206;-72
2023/07/07 18:17:50;;;;;;;2.00;1.90;;;;;;;;;;4977031;28;20652;-71
2023/07/07 18:20:24;;;;;;;2.40;2.22;;;;;;;;;;4977167;28;20206;-71
2023/07/07 18:22:52;;;;;;;2.10;1.90;;;;;;;;;;4977081;28;20191;-71
2023/07/07 18:25:22;;;;;;;1.70;1.70;;;;;;;;;;4977609;28;20211;-71
2023/07/07 18:27:53;;;;;;;2.35;2.22;;;;;;;;;;4977483;28;20199;-71
2023/07/07 18:30:29;;;;;;;2.00;1.90;;;;;;;;;;4976985;28;20226;-71
2023/07/07 18:32:59;;;;;;;2.22;2.08;;;;;;;;;;4976089;28;20194;-71
2023/07/07 18:35:30;;;;;;;1.83;1.73;;;;;;;;;;4977166;28;20202;-71
2023/07/07 18:38:00;;;;;;;2.17;1.90;;;;;;;;;;4976702;28;20231;-71
2023/07/07 18:40:32;;;;;;;2.30;2.10;;;;;;;;;;4976989;28;20183;-73
2023/07/07 18:43:04;;;;;;;2.88;2.28;;;;;;;;;;4976914;28;20191;-73
2023/07/07 18:45:35;;;;;;;2.17;2.08;;;;;;;;;;4976897;28;20187;-73
2023/07/07 18:48:05;;;;;;;3.55;1.90;;;;;;;;;;4976512;28;20222;-74
2023/07/07 18:50:37;;;;;;;2.40;2.30;;;;;;;;;;4976445;28;20191;-73
2023/07/07 18:53:07;;;;;;;2.10;1.92;;;;;;;;;;4976335;28;20250;-73
2023/07/07 18:55:37;;;;;;;1.75;1.65;;;;;;;;;;4976486;28;20194;-72
2023/07/07 18:58:12;;;;;;;1.92;1.83;;;;;;;;;;4976492;28;20227;-73
2023/07/07 19:00:46;;;;;;;1.98;1.88;;;;;;;;;;4976331;28;20187;-72
2023/07/07 19:03:22;;;;;;;1.98;1.88;;;;;;;;;;4976306;28;20198;-73
2023/07/07 19:06:03;;;;;;;1.85;1.75;;;;;;;;;;4976356;28;20237;-73
2023/07/07 19:08:46;;;;;;;1.67;1.67;;;;;;;;;;4976299;28;20226;-73
2023/07/07 19:11:48;;;;;;;1.85;1.63;;;;;;;;;;4976330;28;20199;-73
2023/07/07 19:14:45;;;;;;;3.42;2.33;;;;;;;;;;4976208;28;20206;-73
2023/07/07 19:17:54;;;;;;;1.85;1.70;;;;;;;;;;4976130;28;20211;-74
2023/07/07 19:21:02;;;;;;;2.28;2.17;;;;;;;;;;4975507;28;20702;-74
2023/07/07 19:24:12;;;;;;;2.40;2.28;;;;;;;;;;4975615;28;20689;-73
2023/07/07 19:27:24;;;;;;;2.05;1.88;;;;;;;;;;4976507;28;20531;-73
2023/07/07 19:30:35;;;;;;;2.13;1.80;;;;;;;;;;4975301;28;20713;-73
2023/07/07 19:33:45;;;;;;;2.15;2.05;;;;;;;;;;4975334;28;20682;-73
2023/07/07 19:36:58;;;;;;;1.90;1.70;;;;;;;;;;4975692;28;20203;-73
2023/07/07 19:40:08;;;;;;;1.98;1.88;;;;;;;;;;4975244;28;20222;-73
2023/07/07 19:43:19;;;;;;;1.95;1.77;;;;;;;;;;4974999;28;20546;-73
2023/07/07 19:46:37;;;;;;;1.48;1.38;;;;;;;;;;4975543;28;20219;-74
2023/07/07 19:49:59;;;;;;;1.92;1.83;;;;;;;;;;4975398;28;20229;-74
2023/07/07 19:53:11;;;;;;;1.92;1.83;;;;;;;;;;4975656;28;20203;-73
2023/07/07 19:56:24;;;;;;;2.67;2.00;;;;;;;;;;4976022;28;20562;-75
2023/07/07 19:59:38;;;;;;;1.92;1.83;;;;;;;;;;4975211;28;20218;-73
2023/07/07 20:02:57;;;;;;;1.92;1.83;;;;;;;;;;4975152;28;20210;-73
2023/07/07 20:06:11;;;;;;;2.03;1.90;;;;;;;;;;4974843;28;20207;-73
2023/07/07 20:09:27;;;;;;;2.42;2.30;;;;;;;;;;4975048;28;20237;-73
2023/07/07 20:12:41;;;;;;;2.67;1.92;;;;;;;;;;4975335;28;20230;-73
2023/07/07 20:15:26;;;;;;;2.60;2.30;;;;;;;;;;4974872;28;20214;-73
2023/07/07 20:17:54;;;;;;;2.05;1.95;;;;;;;;;;4974926;28;20191;-72
2023/07/07 20:20:25;;;;;;;2.25;1.80;;;;;;;;;;4974880;28;20673;-71
2023/07/07 20:22:52;;;;;;;2.35;2.25;;;;;;;;;;4974961;28;20190;-70
2023/07/07 20:25:19;;;;;;;1.85;1.75;;;;;;;;;;4974633;28;20560;-70
2023/07/07 20:27:47;;;;;;;1.80;1.70;;;;;;;;;;4974983;28;20207;-70
2023/07/07 20:30:18;;;;;;;1.88;1.77;;;;;;;;;;4974897;28;20206;-70
2023/07/07 20:32:47;;;;;;;2.33;2.20;;;;;;;;;;4974825;28;20264;-71
2023/07/07 20:35:15;;;;;;;1.90;1.80;;;;;;;;;;4974963;28;20293;-71
2023/07/07 20:37:47;;;;;;;2.17;2.08;;;;;;;;;;4974400;28;20674;-70
2023/07/07 20:40:17;;;;;;;2.17;1.98;;;;;;;;;;4974871;28;20544;-71
2023/07/07 20:42:44;;;;;;;1.80;1.80;;;;;;;;;;4974818;28;20226;-72
2023/07/07 20:45:12;;;;;;;2.15;2.05;;;;;;;;;;4974735;28;20210;-72
2023/07/07 20:47:39;;;;;;;2.25;2.05;;;;;;;;;;4974779;28;20299;-71
2023/07/07 20:50:13;;;;;;;2.10;2.00;;;;;;;;;;4974855;28;20210;-72
2023/07/07 20:52:41;;;;;;;2.42;2.22;;;;;;;;;;4974710;28;20207;-71
2023/07/07 20:55:10;;;;;;;2.45;2.25;;;;;;;;;;4976368;28;20207;-71
2023/07/07 20:57:37;;;;;;;2.08;1.98;;;;;;;;;;4978502;28;20230;-71
2023/07/07 21:00:10;;;;;;;2.00;1.90;;;;;;;;;;4978572;28;20230;-72
2023/07/07 21:02:37;;;;;;;2.45;2.00;;;;;;;;;;4978439;28;20194;-71
2023/07/07 21:05:04;;;;;;;2.30;2.10;;;;;;;;;;4978283;28;20203;-71
2023/07/07 21:07:31;;;;;;;2.38;2.17;;;;;;;;;;4978381;28;20298;-71
2023/07/07 21:10:03;;;;;;;2.22;2.13;;;;;;;;;;4977916;28;20231;-71
2023/07/07 21:12:30;;;;;;;2.50;2.30;;;;;;;;;;4978206;28;20215;-71
2023/07/07 21:14:57;;;;;;;2.10;1.95;;;;;;;;;;4978286;28;20202;-71
2023/07/07 21:17:24;;;;;;;2.20;2.00;;;;;;;;;;4977803;28;20574;-71
2023/07/07 21:19:51;;;;;;;2.20;2.10;;;;;;;;;;4978928;28;20219;-72
2023/07/07 21:22:18;;;;;;;2.33;2.10;;;;;;;;;;4978037;28;20203;-71
2023/07/07 21:24:45;;;;;;;2.63;2.42;;;;;;;;;;4978047;28;20199;-72
2023/07/07 21:27:13;;;;;;;2.45;2.25;;;;;;;;;;4978012;28;20206;-72
2023/07/07 21:29:43;;;;;;;2.22;2.13;;;;;;;;;;4977833;28;20593;-71
2023/07/07 21:32:10;;;;;;;2.08;1.98;;;;;;;;;;4978583;28;20290;-72
2023/07/07 21:34:37;;;;;;;2.28;2.15;;;;;;;;;;4977905;28;20203;-72
2023/07/07 21:37:05;;;;;;;2.53;2.30;;;;;;;;;;4977670;28;20210;-72
2023/07/07 21:39:32;;;;;;;2.53;2.38;;;;;;;;;;4977625;28;20563;-72
2023/07/07 21:42:01;;;;;;;2.70;2.50;;;;;;;;;;4977617;28;20574;-72
2023/07/07 21:44:29;;;;;;;2.30;2.20;;;;;;;;;;4977595;28;20203;-72
2023/07/07 21:46:56;;;;;;;2.00;1.90;;;;;;;;;;4977411;28;20218;-72
2023/07/07 21:49:23;;;;;;;2.10;2.00;;;;;;;;;;4977079;28;20618;-72
2023/07/07 21:51:50;;;;;;;2.47;2.20;;;;;;;;;;4977312;28;20219;-72
2023/07/07 21:54:17;;;;;;;2.60;2.40;;;;;;;;;;4977369;28;20203;-72
2023/07/07 21:56:44;;;;;;;2.22;2.13;;;;;;;;;;4977057;28;20548;-72
2023/07/07 21:59:16;;;;;;;2.17;2.08;;;;;;;;;;4977138;28;20219;-71
2023/07/07 22:01:45;;;;;;;3.20;2.60;;;;;;;;;;4977277;28;20187;-72
2023/07/07 22:04:12;;;;;;;2.55;2.35;;;;;;;;;;4977170;28;20238;-72
2023/07/07 22:06:39;;;;;;;2.22;2.13;;;;;;;;;;4976987;28;20627;-71
2023/07/07 22:09:11;;;;;;;2.00;1.70;;;;;;;;;;4976539;28;20745;-71
2023/07/07 22:11:38;;;;;;;2.45;2.28;;;;;;;;;;4977127;28;20243;-72
2023/07/07 22:14:05;;;;;;;2.50;2.30;;;;;;;;;;4977133;28;20204;-72
2023/07/07 22:16:32;;;;;;;3.10;2.90;;;;;;;;;;4978460;28;20203;-74
2023/07/07 22:19:00;;;;;;;2.58;2.38;;;;;;;;;;4977617;28;20273;-72
2023/07/07 22:21:28;;;;;;;2.55;2.45;;;;;;;;;;4977099;28;20671;-72
2023/07/07 22:23:55;;;;;;;2.78;2.58;;;;;;;;;;4976848;28;20693;-70
2023/07/07 22:26:23;;;;;;;3.30;2.80;;;;;;;;;;4977050;28;20210;-70
2023/07/07 22:28:51;;;;;;;2.92;2.72;;;;;;;;;;4976545;28;20722;-71
2023/07/07 22:31:18;;;;;;;2.65;2.47;;;;;;;;;;4977024;28;20203;-71
2023/07/07 22:33:45;;;;;;;3.25;2.95;;;;;;;;;;4976713;28;20231;-70
2023/07/07 22:36:16;;;;;;;3.10;2.90;;;;;;;;;;4976640;28;20210;-70
2023/07/07 22:38:43;;;;;;;2.78;2.58;;;;;;;;;;4976633;28;20582;-69
2023/07/07 22:41:11;;;;;;;5.10;2.85;;;;;;;;;;4976634;28;20230;-69
2023/07/07 22:43:38;;;;;;;3.40;3.10;;;;;;;;;;4976702;28;20199;-69
2023/07/07 22:46:12;;;;;;;2.85;2.65;;;;;;;;;;4976323;28;20207;-68
2023/07/07 22:48:39;;;;;;;3.08;2.88;;;;;;;;;;4976259;28;20290;-69
2023/07/07 22:51:09;;;;;;;3.05;2.45;;;;;;;;;;4976422;28;20210;-68
2023/07/07 22:53:38;;;;;;;3.33;3.03;;;;;;;;;;4976415;28;20219;-69
2023/07/07 22:56:10;;;;;;;3.20;3.00;;;;;;;;;;4976227;28;20261;-69
2023/07/07 22:58:37;;;;;;;3.33;3.10;;;;;;;;;;4975965;28;20227;-69
2023/07/07 23:01:06;;;;;;;2.90;2.70;;;;;;;;;;4976299;28;20266;-69
2023/07/07 23:03:33;;;;;;;3.25;2.97;;;;;;;;;;4976523;28;20203;-70
2023/07/07 23:06:00;;;;;;;2.30;2.20;;;;;;;;;;4975965;28;20208;-69
2023/07/07 23:08:27;;;;;;;2.75;2.55;;;;;;;;;;4999115;23;20230;-68
2023/07/07 23:10:55;;;;;;;3.35;3.08;;;;;;;;;;4976095;28;20204;-67
2023/07/07 23:13:22;;;;;;;4.00;3.60;;;;;;;;;;4975932;28;20356;-67
2023/07/07 23:15:49;;;;;;;3.97;3.10;;;;;;;;;;4975927;28;20274;-68
2023/07/07 23:18:17;;;;;;;3.72;3.38;;;;;;;;;;4974923;28;20214;-67
2023/07/07 23:20:44;;;;;;;2.85;2.65;;;;;;;;;;4975548;28;20635;-68
2023/07/07 23:23:20;;;;;;;2.75;2.42;;;;;;;;;;4975837;28;20199;-68
